Time;durP1;ratioP1;P1;durP2;ratioP2;P2;SDS_P1;SDS_P2;PMS_P1;PMS_P2;Temp;Humidity;BMP_temperature;BMP_pressure;BME280_temperature;BME280_humidity;BME280_pressure;Samples;Min_cycle;Max_cycle;Signal;HPM_P1;HPM_P2
2021/01/18 00:00:51;;;;;;;24.65;8.55;;;;;;;6.25;70.95;102320.25;5015354;28;20058;-76
2021/01/18 00:03:27;;;;;;;17.83;7.47;;;;;;;6.48;70.55;102317.41;4994485;28;20058;-73
2021/01/18 00:05:54;;;;;;;20.13;7.63;;;;;;;6.08;71.95;102314.75;5014764;28;20049;-72
2021/01/18 00:08:24;;;;;;;21.67;8.82;;;;;;;5.85;72.43;102324.94;5015768;28;20405;-73
2021/01/18 00:10:54;;;;;;;23.30;8.98;;;;;;;6.15;71.94;102318.19;5015954;28;20050;-72
2021/01/18 00:13:25;;;;;;;18.13;7.93;;;;;;;6.50;70.66;102318.78;5015707;28;20049;-74
2021/01/18 00:16:15;;;;;;;21.52;8.05;;;;;;;6.48;70.66;102311.94;5012886;28;20065;-75
2021/01/18 00:18:42;;;;;;;23.00;7.80;;;;;;;6.23;71.78;102306.84;5015346;28;20054;-72
2021/01/18 00:21:09;;;;;;;20.63;7.75;;;;;;;6.37;71.36;102313.66;5015729;28;20049;-76
2021/01/18 00:23:42;;;;;;;15.23;6.88;;;;;;;6.58;71.09;102307.47;4998594;28;20489;-73
2021/01/18 00:26:10;;;;;;;22.00;8.27;;;;;;;6.39;70.90;102303.28;4981891;28;20057;-74
2021/01/18 00:28:44;;;;;;;21.05;6.95;;;;;;;6.37;71.55;102296.41;5015413;28;20402;-71
2021/01/18 00:31:22;;;;;;;20.75;7.32;;;;;;;6.67;70.60;102305.97;5012848;28;20050;-73
2021/01/18 00:33:55;;;;;;;20.75;7.03;;;;;;;6.64;70.30;102302.91;4995260;28;20042;-72
2021/01/18 00:36:26;;;;;;;20.85;6.60;;;;;;;6.54;70.37;102300.81;5014964;28;20410;-72
2021/01/18 00:38:54;;;;;;;16.13;5.82;;;;;;;6.45;71.35;102302.28;5015090;28;20053;-73
2021/01/18 00:41:24;;;;;;;17.15;6.55;;;;;;;6.59;70.54;102298.16;4982083;28;20061;-74
2021/01/18 00:43:55;;;;;;;18.20;6.30;;;;;;;6.24;71.61;102300.28;4996300;28;20469;-74
2021/01/18 00:46:28;;;;;;;14.63;5.97;;;;;;;6.16;71.92;102300.69;5014374;28;20069;-75
2021/01/18 00:49:04;;;;;;;20.30;6.28;;;;;;;6.35;71.40;102302.13;5015392;28;20057;-73
2021/01/18 00:51:53;;;;;;;17.73;6.50;;;;;;;6.35;71.97;102293.91;5007051;28;20057;-74
2021/01/18 00:54:20;;;;;;;19.25;6.43;;;;;;;6.38;71.45;102298.88;5012362;28;20061;-75
2021/01/18 00:57:01;;;;;;;16.83;6.18;;;;;;;6.34;71.74;102297.75;4997439;28;20401;-73
2021/01/18 00:59:39;;;;;;;14.05;5.40;;;;;;;6.66;70.67;102296.09;4998891;28;20048;-74
2021/01/18 01:02:12;;;;;;;15.05;5.25;;;;;;;6.73;70.19;102284.94;5013222;28;20388;-72
2021/01/18 01:04:42;;;;;;;23.05;6.03;;;;;;;6.55;71.15;102282.50;5013140;28;20053;-76
2021/01/18 01:07:09;;;;;;;31.02;15.73;;;;;;;6.49;70.92;102288.94;5013665;28;20046;-74
2021/01/18 01:09:36;;;;;;;36.47;15.93;;;;;;;6.48;71.05;102287.28;4980848;28;20049;-73
2021/01/18 01:12:06;;;;;;;33.00;16.60;;;;;;;6.32;71.06;102283.47;5014551;28;20058;-74
2021/01/18 01:14:35;;;;;;;29.80;14.20;;;;;;;6.37;71.50;102283.56;5014724;28;20042;-72
2021/01/18 01:17:02;;;;;;;22.58;10.43;;;;;;;5.94;73.09;102275.13;5013980;28;20050;-72
2021/01/18 01:19:29;;;;;;;21.02;7.40;;;;;;;5.88;73.67;102269.78;5014809;28;20391;-74
2021/01/18 01:21:56;;;;;;;25.25;7.20;;;;;;;5.84;73.82;102279.56;5013904;28;20072;-73
2021/01/18 01:24:24;;;;;;;23.13;6.32;;;;;;;6.01;73.00;102277.69;5014654;28;20050;-73
2021/01/18 01:26:50;;;;;;;18.30;6.05;;;;;;;5.94;72.96;102266.06;5014575;28;20046;-74
2021/01/18 01:29:17;;;;;;;20.98;6.28;;;;;;;5.94;72.56;102268.81;5013900;28;20069;-74
2021/01/18 01:31:45;;;;;;;21.27;6.80;;;;;;;5.76;73.67;102267.06;5014460;28;20058;-72
2021/01/18 01:34:15;;;;;;;13.32;5.70;;;;;;;5.77;74.22;102268.72;4997212;28;20046;-74
2021/01/18 01:36:43;;;;;;;17.90;5.75;;;;;;;6.12;72.70;102261.19;5014229;28;20054;-73
2021/01/18 01:39:13;;;;;;;18.27;5.57;;;;;;;6.07;72.92;102255.66;5013602;28;20509;-73
2021/01/18 01:41:47;;;;;;;22.42;5.53;;;;;;;6.06;72.74;102266.84;4996077;28;20057;-75
2021/01/18 01:44:19;;;;;;;13.23;5.68;;;;;;;6.16;72.76;102262.38;5011747;28;20050;-75
2021/01/18 01:46:47;;;;;;;17.25;5.78;;;;;;;5.96;72.53;102252.97;4994686;28;20056;-75
2021/01/18 01:49:15;;;;;;;18.75;5.53;;;;;;;5.73;74.43;102262.09;4995814;28;20429;-73
2021/01/18 01:51:47;;;;;;;20.50;5.80;;;;;;;5.89;73.35;102265.97;4996732;28;20050;-73
2021/01/18 01:54:17;;;;;;;16.15;5.93;;;;;;;5.80;74.14;102261.94;4996929;28;20053;-74
2021/01/18 01:56:45;;;;;;;20.73;6.30;;;;;;;5.95;73.67;102267.72;4996858;28;20046;-73
2021/01/18 01:59:12;;;;;;;20.88;5.45;;;;;;;5.80;73.39;102270.13;4996437;28;20046;-75
2021/01/18 02:01:39;;;;;;;18.40;5.60;;;;;;;5.67;74.37;102260.31;4995914;28;20053;-73
2021/01/18 02:04:09;;;;;;;14.45;5.50;;;;;;;5.86;73.83;102269.22;5013458;28;20402;-72
2021/01/18 02:06:36;;;;;;;15.88;5.28;;;;;;;5.63;74.44;102261.91;4996842;28;20046;-72
2021/01/18 02:09:03;;;;;;;20.30;5.55;;;;;;;5.63;74.66;102273.63;4995647;28;20058;-75
2021/01/18 02:11:30;;;;;;;18.05;5.63;;;;;;;5.65;75.15;102273.38;4995811;28;20050;-73
2021/01/18 02:14:31;;;;;;;19.48;5.35;;;;;;;5.81;74.46;102272.63;5013516;28;20042;-75
2021/01/18 02:17:03;;;;;;;15.43;4.75;;;;;;;5.63;74.99;102267.38;4995980;28;20053;-74
2021/01/18 02:19:52;;;;;;;13.75;4.70;;;;;;;5.93;74.16;102259.75;4995601;28;20050;-74
2021/01/18 02:22:47;;;;;;;13.85;4.78;;;;;;;5.78;74.69;102256.72;4996183;28;20393;-76
2021/01/18 02:26:05;;;;;;;19.85;5.13;;;;;;;6.12;73.76;102261.19;5012290;28;20057;-75
2021/01/18 02:28:52;;;;;;;21.30;5.35;;;;;;;5.81;74.87;102258.97;4914952;29;20056;-74
2021/01/18 02:31:32;;;;;;;17.20;4.65;;;;;;;5.98;74.25;102257.13;4914594;29;20058;-76
2021/01/18 02:38:35;;;;;;;22.15;5.15;;;;;;;6.05;73.99;102262.47;4914653;29;20532;-72
2021/01/18 02:41:08;;;;;;;18.05;4.90;;;;;;;5.85;74.97;102267.53;4914416;29;20048;-73
2021/01/18 02:43:53;;;;;;;14.82;4.88;;;;;;;5.72;75.27;102263.16;4913975;29;20059;-73
2021/01/18 02:46:21;;;;;;;16.27;4.88;;;;;;;6.02;74.71;102260.19;4914024;29;20048;-75
2021/01/18 02:53:38;;;;;;;17.83;4.60;;;;;;;5.97;74.81;102274.63;4914711;29;20044;-74
2021/01/18 02:56:06;;;;;;;19.30;4.50;;;;;;;5.89;74.16;102272.28;4914028;29;20056;-74
2021/01/18 02:58:36;;;;;;;11.30;4.45;;;;;;;5.70;74.68;102276.25;4883299;29;20048;-74
2021/01/18 03:01:07;;;;;;;18.25;4.45;;;;;;;5.69;74.73;102272.69;4883691;29;20064;-75
2021/01/18 03:03:48;;;;;;;12.52;3.78;;;;;;;5.55;75.70;102271.31;4996775;28;20050;-75
2021/01/18 03:06:21;;;;;;;16.55;4.28;;;;;;;5.78;74.86;102272.28;4996634;28;20054;-73
2021/01/18 03:08:55;;;;;;;16.75;3.90;;;;;;;5.82;74.12;102266.09;4995542;28;20155;-73
2021/01/18 03:11:31;;;;;;;22.83;4.47;;;;;;;5.91;73.70;102259.16;5011719;28;20054;-73
2021/01/18 03:14:08;;;;;;;17.52;4.13;;;;;;;5.77;74.42;102257.78;4995855;28;20069;-72
2021/01/18 03:16:38;;;;;;;15.77;4.15;;;;;;;5.77;74.39;102257.78;4995798;28;20058;-72
2021/01/18 03:19:08;;;;;;;16.10;4.00;;;;;;;5.85;73.99;102257.44;5013023;28;20397;-74
2021/01/18 03:21:35;;;;;;;14.45;3.67;;;;;;;5.69;74.58;102259.00;4995284;28;20401;-74
2021/01/18 03:24:02;;;;;;;13.52;3.45;;;;;;;5.55;75.09;102262.25;5012644;28;20061;-72
2021/01/18 03:26:29;;;;;;;16.50;3.80;;;;;;;5.61;74.82;102261.31;5012898;28;20069;-73
2021/01/18 03:28:56;;;;;;;8.35;3.63;;;;;;;5.68;74.59;102259.25;5012836;28;20374;-72
2021/01/18 03:31:23;;;;;;;11.90;3.90;;;;;;;5.47;74.76;102259.91;5012550;28;20042;-74
2021/01/18 03:33:50;;;;;;;21.80;4.65;;;;;;;5.37;75.24;102260.53;5012427;28;20129;-72
2021/01/18 03:36:17;;;;;;;12.45;3.92;;;;;;;5.36;75.42;102255.31;4995364;28;20050;-72
2021/01/18 03:38:44;;;;;;;18.98;4.03;;;;;;;5.37;75.47;102251.53;4995337;28;20049;-74
2021/01/18 03:41:12;;;;;;;15.88;3.95;;;;;;;5.40;75.57;102264.69;5012241;28;20057;-77
2021/01/18 03:43:39;;;;;;;14.63;3.95;;;;;;;5.39;75.36;102246.63;5012433;28;20064;-76
2021/01/18 03:46:06;;;;;;;12.90;4.10;;;;;;;5.17;76.08;102253.81;5012919;28;20049;-72
2021/01/18 03:48:33;;;;;;;14.40;4.72;;;;;;;5.34;75.87;102254.72;5012818;28;20041;-74
2021/01/18 03:51:00;;;;;;;14.73;3.60;;;;;;;5.59;75.24;102253.34;5012634;28;20050;-73
2021/01/18 03:53:27;;;;;;;19.40;4.43;;;;;;;5.41;75.41;102255.41;5012665;28;20061;-74
2021/01/18 03:55:54;;;;;;;17.75;4.03;;;;;;;5.61;75.08;102247.66;5010836;28;20045;-73
2021/01/18 03:58:21;;;;;;;15.60;3.97;;;;;;;5.72;74.70;102254.94;5011787;28;20054;-74
2021/01/18 04:00:48;;;;;;;20.48;3.65;;;;;;;5.70;74.28;102252.47;5010890;28;20463;-74
2021/01/18 04:03:19;;;;;;;15.27;3.75;;;;;;;5.65;75.20;102246.91;4994759;28;20180;-72
2021/01/18 04:10:16;;;;;;;17.17;4.07;;;;;;;5.71;74.58;102247.84;4997900;28;20413;-73
2021/01/18 04:12:45;;;;;;;13.90;3.72;;;;;;;5.53;75.16;102251.56;5015755;28;20049;-74
2021/01/18 04:15:14;;;;;;;20.10;3.55;;;;;;;5.38;75.16;102247.72;5015713;28;20041;-73
2021/01/18 04:17:46;;;;;;;15.50;5.05;;;;;;;5.42;75.61;102241.50;5015108;28;20049;-72
2021/01/18 04:24:40;;;;;;;16.98;3.67;;;;;;;5.28;75.56;102245.56;4997783;28;20050;-73
2021/01/18 04:27:08;;;;;;;12.18;3.58;;;;;;;5.27;75.83;102254.03;5016121;28;20046;-72
2021/01/18 04:29:35;;;;;;;12.48;4.45;;;;;;;5.27;75.79;102254.03;5015235;28;20064;-74
2021/01/18 04:32:03;;;;;;;21.25;3.75;;;;;;;5.30;75.61;102262.56;5015944;28;20049;-74
2021/01/18 04:34:30;;;;;;;19.75;4.18;;;;;;;5.46;74.86;102259.09;4998180;28;20509;-74
2021/01/18 04:37:01;;;;;;;11.85;3.50;;;;;;;5.42;75.10;102257.91;5015893;28;20065;-75
2021/01/18 04:39:29;;;;;;;16.45;4.18;;;;;;;5.35;74.84;102257.19;5015603;28;20049;-74
2021/01/18 04:41:58;;;;;;;14.85;4.05;;;;;;;5.59;74.69;102257.97;5015101;28;20046;-75
2021/01/18 04:44:27;;;;;;;20.45;4.00;;;;;;;5.62;73.84;102244.66;4997459;28;20052;-75
2021/01/18 04:46:57;;;;;;;15.43;3.60;;;;;;;5.73;73.63;102237.50;4997900;28;20397;-76
2021/01/18 04:49:24;;;;;;;15.63;3.38;;;;;;;5.76;73.06;102242.47;5014183;28;20045;-75
2021/01/18 04:51:56;;;;;;;14.48;3.67;;;;;;;5.41;73.91;102239.03;4997773;28;20057;-74
2021/01/18 04:54:24;;;;;;;16.33;4.40;;;;;;;5.19;75.33;102233.41;4981769;28;20393;-75
2021/01/18 04:57:14;;;;;;;19.08;3.60;;;;;;;5.24;75.49;102221.72;4997559;28;20046;-74
2021/01/18 04:59:45;;;;;;;;;;;;;;;5.29;75.25;102224.56;5015471;28;20054;-74
2021/01/18 05:02:22;;;;;;;;;;;;;;;5.11;75.30;102220.09;5015234;28;19932;-74
2021/01/18 05:04:51;;;;;;;14.38;3.33;;;;;;;5.07;76.15;102216.22;5013696;28;19928;-74
2021/01/18 05:07:24;;;;;;;17.08;3.80;;;;;;;4.96;76.50;102217.03;5015024;28;20053;-74
2021/01/18 05:09:58;;;;;;;17.52;3.53;;;;;;;4.91;76.92;102211.47;5014390;28;20523;-75
2021/01/18 05:12:25;;;;;;;18.63;3.67;;;;;;;4.82;77.46;102209.34;5014167;28;20054;-74
2021/01/18 05:14:52;;;;;;;14.30;4.15;;;;;;;4.85;77.52;102209.69;4996830;28;20050;-74
2021/01/18 05:17:43;;;;;;;13.27;3.55;;;;;;;4.92;76.70;102202.19;4980983;28;20050;-74
2021/01/18 05:20:20;;;;;;;14.13;3.58;;;;;;;5.03;76.62;102201.38;5015164;28;20041;-75
2021/01/18 05:28:35;;;;;;;;;;;;;;;;;;;;;
2021/01/18 05:31:55;;;;;;;;;;;;;;;;;;;;;
2021/01/18 05:39:49;;;;;;;13.60;3.50;;;;;;;5.58;73.87;102207.94;4842386;29;20080;-74
2021/01/18 05:42:32;;;;;;;15.32;3.60;;;;;;;5.63;74.59;102213.50;5090161;28;20737;-74
2021/01/18 05:44:59;;;;;;;15.02;3.50;;;;;;;5.91;73.25;102209.94;5088020;28;20052;-74
2021/01/18 05:47:25;;;;;;;18.40;3.80;;;;;;;5.81;73.41;102211.63;5050678;28;20049;-74
2021/01/18 05:49:53;;;;;;;12.77;4.18;;;;;;;5.74;73.24;102212.63;5068652;28;20048;-72
2021/01/18 05:52:30;;;;;;;13.75;4.10;;;;;;;5.66;73.84;102210.31;5068569;28;20064;-75
2021/01/18 05:55:17;;;;;;;19.38;3.88;;;;;;;5.72;73.77;102208.47;5070386;28;20060;-76
2021/01/18 05:58:03;;;;;;;17.80;3.95;;;;;;;5.83;73.82;102204.91;5068501;28;20395;-73
2021/01/18 06:00:36;;;;;;;10.82;2.90;;;;;;;5.82;73.47;102205.94;5085170;28;20049;-75
2021/01/18 06:03:09;;;;;;;10.75;3.45;;;;;;;5.57;74.44;102205.47;5087843;28;20045;-74
2021/01/18 06:05:41;;;;;;;19.90;3.33;;;;;;;5.85;74.04;102204.66;5069741;28;20052;-75
2021/01/18 06:08:15;;;;;;;19.10;3.25;;;;;;;5.99;72.98;102206.84;5085335;28;20051;-74
2021/01/18 06:10:43;;;;;;;13.68;3.15;;;;;;;5.84;73.99;102203.81;5069708;28;20044;-76
2021/01/18 06:13:19;;;;;;;22.70;4.53;;;;;;;5.63;74.85;102209.97;5067691;28;20056;-75
2021/01/18 06:15:47;;;;;;;17.75;4.05;;;;;;;5.89;73.81;102214.03;5084506;28;20408;-74
2021/01/18 06:18:42;;;;;;;14.18;3.55;;;;;;;5.64;74.66;102219.81;5068251;28;20052;-75
2021/01/18 06:21:45;;;;;;;21.70;3.92;;;;;;;5.75;74.62;102208.81;5006834;28;20053;-73
2021/01/18 06:24:25;;;;;;;12.55;3.35;;;;;;;5.74;74.63;102215.38;5046605;28;20448;-74
2021/01/18 06:26:53;;;;;;;14.77;3.85;;;;;;;5.99;74.38;102220.50;5046323;28;20046;-75
2021/01/18 06:29:39;;;;;;;13.98;3.50;;;;;;;6.10;73.13;102216.84;5046628;28;20053;-74
2021/01/18 06:32:08;;;;;;;15.55;4.00;;;;;;;5.96;74.10;102220.16;5029954;28;20384;-73
2021/01/18 06:34:35;;;;;;;11.32;3.67;;;;;;;6.12;73.95;102222.09;5047457;28;20049;-73
2021/01/18 06:37:03;;;;;;;14.07;3.60;;;;;;;5.79;74.07;102224.75;5066169;28;20136;-73
2021/01/18 06:39:56;;;;;;;13.15;3.30;;;;;;;5.85;74.20;102224.63;5052630;28;20077;-75
2021/01/18 06:42:23;;;;;;;16.33;3.65;;;;;;;6.01;74.16;102221.09;5027321;28;20046;-73
2021/01/18 06:45:20;;;;;;;16.65;3.58;;;;;;;5.99;73.42;102223.25;5011369;28;20053;-73
2021/01/18 06:47:48;;;;;;;16.85;3.60;;;;;;;6.05;73.10;102230.44;5045843;28;20064;-73
2021/01/18 06:50:15;;;;;;;15.13;3.40;;;;;;;6.05;72.98;102233.19;5029154;28;20527;-73
2021/01/18 06:52:46;;;;;;;14.18;3.95;;;;;;;6.36;72.39;102227.16;5022481;28;20455;-73
2021/01/18 06:55:20;;;;;;;18.92;4.25;;;;;;;6.04;73.46;102230.69;5032982;28;20416;-74
2021/01/18 06:58:02;;;;;;;16.10;3.47;;;;;;;6.16;73.38;102231.44;5026526;28;20058;-74
2021/01/18 07:00:30;;;;;;;12.32;3.08;;;;;;;6.12;73.18;102242.06;5013042;28;20058;-72
2021/01/18 07:03:06;;;;;;;18.67;3.80;;;;;;;6.19;73.09;102248.19;5013236;28;20050;-71
2021/01/18 07:05:45;;;;;;;11.65;3.90;;;;;;;6.09;73.56;102236.25;5029052;28;20065;-73
2021/01/18 07:08:15;;;;;;;15.43;3.65;;;;;;;6.22;73.20;102249.63;5047765;28;20053;-75
2021/01/18 07:10:47;;;;;;;18.02;3.97;;;;;;;5.78;74.74;102251.25;5016448;28;20064;-71
2021/01/18 07:13:26;;;;;;;21.35;8.18;;;;;;;5.80;74.84;102253.72;5015720;28;20053;-73
2021/01/18 07:16:02;;;;;;;27.77;10.20;;;;;;;5.96;74.48;102253.81;5033136;28;20050;-74
2021/01/18 07:18:32;;;;;;;23.08;6.43;;;;;;;5.87;74.63;102251.72;5052823;28;20532;-76
2021/01/18 07:21:02;;;;;;;25.00;4.80;;;;;;;5.88;74.48;102251.47;5073569;28;20510;-74
2021/01/18 07:23:30;;;;;;;;;;;;;;;6.05;74.19;102246.84;5073504;28;20044;-74
2021/01/18 07:26:16;;;;;;;25.35;5.10;;;;;;;5.95;73.67;102254.88;5090145;28;19920;-74
2021/01/18 07:28:47;;;;;;;21.45;4.50;;;;;;;5.73;74.84;102254.72;5073675;28;20053;-74
2021/01/18 07:31:21;;;;;;;16.70;4.32;;;;;;;5.82;74.51;102257.06;5090429;28;20488;-73
2021/01/18 07:33:48;;;;;;;15.82;4.75;;;;;;;5.91;74.58;102258.38;5059547;28;20049;-72
2021/01/18 07:36:27;;;;;;;24.25;4.35;;;;;;;6.00;73.58;102260.44;5056294;28;20064;-75
2021/01/18 07:38:55;;;;;;;22.20;4.75;;;;;;;5.82;74.48;102263.38;5066792;28;20063;-75
2021/01/18 07:41:33;;;;;;;24.42;5.40;;;;;;;5.91;74.92;102264.63;5071726;28;20063;-75
2021/01/18 07:44:00;;;;;;;21.73;4.72;;;;;;;6.02;74.96;102268.41;5075374;28;20040;-76
2021/01/18 07:46:29;;;;;;;17.25;4.45;;;;;;;5.81;75.05;102260.84;5068991;28;20048;-74
2021/01/18 07:49:23;;;;;;;18.50;4.93;;;;;;;5.96;74.11;102262.03;5074205;28;20049;-75
2021/01/18 07:51:50;;;;;;;24.60;6.28;;;;;;;6.05;74.35;102260.53;5071443;28;20037;-74
2021/01/18 07:54:33;;;;;;;21.65;6.82;;;;;;;5.67;74.86;102271.25;5075259;28;20040;-74
2021/01/18 07:57:26;;;;;;;29.67;7.53;;;;;;;5.72;74.83;102268.63;5079951;28;20514;-75
2021/01/18 08:00:17;;;;;;;20.33;5.85;;;;;;;5.87;74.91;102271.69;5069639;28;20542;-74
2021/01/18 08:02:52;;;;;;;25.85;5.60;;;;;;;5.85;73.97;102259.34;5081694;28;20040;-74
2021/01/18 08:05:41;;;;;;;19.15;5.38;;;;;;;5.91;73.63;102272.84;5038359;28;20488;-73
2021/01/18 08:08:10;;;;;;;26.13;5.55;;;;;;;5.98;74.13;102269.97;5056167;28;20052;-74
2021/01/18 08:10:55;;;;;;;21.98;5.20;;;;;;;6.08;74.09;102267.44;5081686;28;20047;-74
2021/01/18 08:13:45;;;;;;;20.10;4.57;;;;;;;6.14;73.44;102266.44;5093685;28;20051;-72
2021/01/18 08:16:20;;;;;;;18.23;5.03;;;;;;;5.81;74.29;102277.25;5073031;28;20048;-73
2021/01/18 08:19:13;;;;;;;22.55;5.78;;;;;;;5.92;73.97;102279.16;5051885;28;20049;-74
2021/01/18 08:21:47;;;;;;;19.25;5.43;;;;;;;6.08;73.65;102279.22;5053609;28;20044;-75
2021/01/18 08:24:35;;;;;;;19.33;5.25;;;;;;;6.12;73.18;102283.09;5053212;28;20053;-74
2021/01/18 08:27:04;;;;;;;24.02;5.93;;;;;;;6.09;74.05;102288.22;5057969;28;20045;-74
2021/01/18 08:29:52;;;;;;;20.42;6.13;;;;;;;6.10;73.99;102300.84;5053537;28;20045;-74
2021/01/18 08:32:30;;;;;;;21.25;5.38;;;;;;;6.00;74.54;102304.19;5045631;28;20048;-75
2021/01/18 08:35:02;;;;;;;20.35;6.55;;;;;;;6.08;73.67;102289.31;5055144;28;20495;-72
2021/01/18 08:37:38;;;;;;;19.15;4.72;;;;;;;6.03;74.26;102286.47;5038437;28;20052;-74
2021/01/18 08:40:12;;;;;;;20.67;4.72;;;;;;;6.13;74.46;102284.78;5071707;28;20411;-74
2021/01/18 08:42:44;;;;;;;18.80;4.85;;;;;;;6.30;73.12;102290.25;5071035;28;20057;-74
2021/01/18 08:45:23;;;;;;;20.05;5.05;;;;;;;6.24;73.54;102292.06;5071732;28;20064;-74
2021/01/18 08:48:13;;;;;;;22.35;4.75;;;;;;;6.26;72.78;102280.91;5055016;28;20507;-73
2021/01/18 08:50:46;;;;;;;25.90;7.40;;;;;;;6.28;72.99;102284.19;5072590;28;20412;-73
2021/01/18 08:53:33;;;;;;;19.52;5.68;;;;;;;6.03;73.50;102281.84;5072901;28;20063;-72
2021/01/18 08:56:21;;;;;;;22.05;6.28;;;;;;;6.27;73.50;102277.06;5070770;28;20072;-72
2021/01/18 08:58:48;;;;;;;29.98;5.70;;;;;;;6.20;73.70;102274.50;5073515;28;20059;-72
2021/01/18 09:01:18;;;;;;;17.20;5.45;;;;;;;6.61;72.26;102278.75;5072215;28;20043;-73
2021/01/18 09:03:46;;;;;;;;;;;;;;;6.37;72.77;102275.34;5057270;28;20055;-74
2021/01/18 09:06:13;;;;;;;19.02;5.50;;;;;;;6.42;72.51;102286.38;5088212;28;19924;-73
2021/01/18 09:08:42;;;;;;;19.48;6.63;;;;;;;6.43;72.48;102277.06;5073140;28;20412;-74
2021/01/18 09:11:10;;;;;;;26.38;9.55;;;;;;;6.68;72.05;102266.53;5071531;28;20048;-73
2021/01/18 09:13:39;;;;;;;21.50;6.40;;;;;;;6.86;71.47;102270.94;5057797;28;20046;-73
2021/01/18 09:16:08;;;;;;;19.55;6.25;;;;;;;6.74;71.31;102273.78;5072903;28;20057;-73
2021/01/18 09:18:36;;;;;;;21.65;5.00;;;;;;;6.81;72.62;102268.97;5071697;28;20053;-73
2021/01/18 09:21:07;;;;;;;22.10;5.00;;;;;;;7.12;72.40;102272.97;5073430;28;20036;-69
2021/01/18 09:23:34;;;;;;;20.38;5.60;;;;;;;7.42;71.45;102269.81;5063642;28;20059;-70
2021/01/18 09:26:13;;;;;;;15.32;4.45;;;;;;;7.16;70.26;102263.16;5075119;28;20047;-76
2021/01/18 09:28:52;;;;;;;15.23;5.37;;;;;;;7.10;69.53;102266.91;5055176;28;20052;-74
2021/01/18 09:31:23;;;;;;;25.27;6.90;;;;;;;6.70;70.89;102269.88;5071148;28;20274;-69
2021/01/18 09:33:52;;;;;;;23.33;7.05;;;;;;;6.97;71.06;102264.53;5065222;28;20420;-75
2021/01/18 09:37:40;;;;;;;24.33;6.82;;;;;;;7.11;70.06;102270.47;5070883;28;20400;-72
2021/01/18 09:40:11;;;;;;;23.65;7.40;;;;;;;7.33;70.12;102268.56;5046192;28;20041;-75
2021/01/18 09:42:52;;;;;;;24.65;7.88;;;;;;;7.32;70.17;102267.75;5046544;28;20052;-75
2021/01/18 09:45:19;;;;;;;20.33;8.43;;;;;;;7.44;69.33;102264.91;5046237;28;20635;-74
2021/01/18 09:47:48;;;;;;;23.25;8.52;;;;;;;7.63;69.49;102263.47;5026740;28;20044;-77
2021/01/18 09:50:18;;;;;;;23.98;7.70;;;;;;;7.53;69.36;102258.69;5028452;28;20099;-79
2021/01/18 09:52:50;;;;;;;27.83;7.90;;;;;;;7.61;69.38;102262.91;5013342;28;20148;-77
2021/01/18 09:55:20;;;;;;;19.00;6.28;;;;;;;7.96;68.55;102266.06;5014719;28;20064;-74
2021/01/18 09:58:02;;;;;;;18.55;5.50;;;;;;;7.87;68.22;102275.81;5050499;28;20052;-74
2021/01/18 10:00:31;;;;;;;27.40;6.13;;;;;;;7.40;70.19;102275.53;5040941;28;20049;-77
2021/01/18 10:02:58;;;;;;;16.67;5.22;;;;;;;7.54;69.83;102281.47;5049107;28;20112;-75
2021/01/18 10:05:34;;;;;;;17.50;5.75;;;;;;;7.89;68.69;102263.53;5032271;28;20087;-71
2021/01/18 10:08:11;;;;;;;15.45;5.75;;;;;;;7.72;69.01;102267.44;5019703;28;20049;-78
2021/01/18 10:10:43;;;;;;;16.52;5.97;;;;;;;7.99;68.45;102260.88;5032266;28;20136;-73
2021/01/18 10:13:17;;;;;;;23.05;6.13;;;;;;;8.26;67.57;102265.56;5033255;28;20049;-74
2021/01/18 10:15:46;;;;;;;20.63;5.15;;;;;;;7.81;67.99;102263.97;5050687;28;20305;-70
2021/01/18 10:18:30;;;;;;;23.65;5.32;;;;;;;8.25;67.50;102267.47;5053806;28;20067;-73
2021/01/18 10:20:59;;;;;;;22.92;5.18;;;;;;;8.12;67.76;102267.88;5036670;28;20060;-77
2021/01/18 10:23:31;;;;;;;20.43;4.70;;;;;;;8.03;67.85;102266.69;5060961;28;20075;-75
2021/01/18 10:26:18;;;;;;;15.75;4.07;;;;;;;8.19;67.54;102268.50;5055691;28;20036;-76
2021/01/18 10:28:51;;;;;;;22.48;4.85;;;;;;;8.34;67.77;102268.66;5048591;28;20470;-77
2021/01/18 10:31:29;;;;;;;15.27;4.47;;;;;;;8.34;67.04;102268.66;5061907;28;20044;-75
2021/01/18 10:34:23;;;;;;;22.70;5.10;;;;;;;8.57;66.48;102273.81;5076693;28;20059;-79
2021/01/18 10:36:54;;;;;;;26.23;5.32;;;;;;;8.48;66.13;102267.13;5107221;28;20049;-79
2021/01/18 10:39:31;;;;;;;15.98;4.50;;;;;;;8.74;66.50;102258.00;5074882;28;20052;-75
2021/01/18 10:42:07;;;;;;;20.92;4.75;;;;;;;8.88;65.61;102256.47;5056604;28;20499;-74
2021/01/18 10:44:37;;;;;;;14.75;4.18;;;;;;;8.93;65.71;102251.00;5079247;28;20053;-74
2021/01/18 10:47:20;;;;;;;20.60;5.05;;;;;;;8.76;65.75;102250.31;5055177;28;20519;-73
2021/01/18 10:49:58;;;;;;;24.00;7.97;;;;;;;8.77;65.38;102254.72;5069078;28;20496;-73
2021/01/18 10:52:41;;;;;;;23.83;5.95;;;;;;;8.71;65.32;102258.53;5075075;28;20541;-73
2021/01/18 10:55:12;;;;;;;16.35;4.57;;;;;;;8.75;65.97;102253.34;5074289;28;20052;-73
2021/01/18 10:57:57;;;;;;;24.08;5.18;;;;;;;8.65;65.94;102251.34;5072931;28;20045;-78
2021/01/18 11:00:29;;;;;;;23.80;5.30;;;;;;;8.46;66.38;102254.75;5073913;28;20055;-77
2021/01/18 11:03:01;;;;;;;17.33;3.90;;;;;;;8.44;67.13;102252.25;5068461;28;20057;-72
2021/01/18 11:05:35;;;;;;;18.40;4.00;;;;;;;8.53;66.63;102249.84;5067517;28;20074;-69
2021/01/18 11:08:05;;;;;;;18.85;4.30;;;;;;;8.45;66.27;102248.44;5072884;28;20484;-73
2021/01/18 11:10:36;;;;;;;27.52;7.10;;;;;;;8.69;65.68;102246.97;5074766;28;20048;-73
2021/01/18 11:13:08;;;;;;;16.65;4.72;;;;;;;8.63;65.67;102245.28;5074536;28;20056;-73
2021/01/18 11:15:40;;;;;;;20.35;4.43;;;;;;;8.81;65.49;102242.13;5075564;28;20405;-72
2021/01/18 11:18:09;;;;;;;15.23;4.28;;;;;;;8.67;65.34;102238.16;5061394;28;20071;-74
2021/01/18 11:20:38;;;;;;;23.40;4.47;;;;;;;9.01;64.84;102236.72;5070304;28;20053;-72
2021/01/18 11:23:09;;;;;;;17.50;4.22;;;;;;;9.09;64.81;102236.25;5054992;28;20053;-68
2021/01/18 11:25:39;;;;;;;19.15;5.35;;;;;;;9.08;64.66;102223.59;5054735;28;20052;-71
2021/01/18 11:28:10;;;;;;;19.75;4.05;;;;;;;9.14;64.12;102218.94;5053359;28;20060;-72
2021/01/18 11:30:38;;;;;;;16.17;4.55;;;;;;;9.01;64.92;102212.00;5055146;28;20518;-74
2021/01/18 11:33:11;;;;;;;24.17;5.28;;;;;;;9.06;64.28;102212.06;5074849;28;20048;-73
2021/01/18 11:35:42;;;;;;;19.88;5.00;;;;;;;9.15;64.44;102209.63;5074493;28;20053;-71
2021/01/18 11:38:09;;;;;;;20.98;6.53;;;;;;;9.13;64.60;102205.47;5074531;28;20049;-72
2021/01/18 11:40:36;;;;;;;18.65;5.32;;;;;;;9.36;64.05;102194.03;5072749;28;20408;-69
2021/01/18 11:43:03;;;;;;;18.23;4.85;;;;;;;9.47;63.87;102185.53;5073724;28;20049;-73
2021/01/18 11:45:30;;;;;;;16.73;3.60;;;;;;;9.41;63.03;102188.53;5072499;28;20049;-75
2021/01/18 11:47:57;;;;;;;21.20;4.28;;;;;;;9.30;63.38;102186.84;5056903;28;20049;-70
2021/01/18 11:50:25;;;;;;;20.02;4.22;;;;;;;9.70;63.04;102186.97;5052229;28;20048;-73
2021/01/18 11:52:55;;;;;;;13.70;3.45;;;;;;;9.78;61.64;102175.44;5088048;28;20060;-75
2021/01/18 11:55:22;;;;;;;15.88;4.45;;;;;;;9.78;61.74;102172.69;5021712;28;20052;-71
2021/01/18 11:57:50;;;;;;;19.85;4.63;;;;;;;9.66;61.80;102166.63;5056895;28;20056;-77
2021/01/18 12:00:28;;;;;;;15.57;3.85;;;;;;;9.55;62.03;102168.53;5057873;28;20043;-77
2021/01/18 12:02:57;;;;;;;20.83;6.72;;;;;;;9.51;61.74;102163.81;5065635;28;20057;-75
2021/01/18 12:05:26;;;;;;;27.40;9.10;;;;;;;9.69;61.61;102166.88;5055370;28;20049;-72
2021/01/18 12:07:54;;;;;;;18.95;4.32;;;;;;;9.81;61.26;102158.38;5056080;28;20279;-71
2021/01/18 12:10:22;;;;;;;12.30;3.20;;;;;;;9.60;61.16;102157.53;5075109;28;20063;-74
2021/01/18 12:12:50;;;;;;;13.50;3.65;;;;;;;9.44;60.90;102149.50;5076153;28;20055;-71
2021/01/18 12:15:17;;;;;;;17.67;3.08;;;;;;;9.96;60.17;102161.13;5077382;28;20063;-77
2021/01/18 12:17:46;;;;;;;18.02;4.35;;;;;;;9.81;60.15;102144.63;5077366;28;20045;-73
2021/01/18 12:20:15;;;;;;;16.13;4.00;;;;;;;9.52;60.50;102137.97;5076078;28;20060;-68
2021/01/18 12:22:43;;;;;;;17.23;4.40;;;;;;;9.82;60.31;102136.09;5071992;28;20048;-70
2021/01/18 12:25:13;;;;;;;24.70;3.90;;;;;;;9.56;60.21;102133.56;5074188;28;20044;-70
2021/01/18 12:27:40;;;;;;;15.57;2.95;;;;;;;9.38;60.15;102123.91;5071363;28;20048;-72